Astra — PB4187 — position and weather

sailwx.info

Track history (hours):
 
Tides and Currents Weather Stations Pressure Air Temp Water Temp Dewpoint Dewpoint Depression Visibility Wind Speed Wind Dir Waves Ship Positions

Astra

Last reported at 2014-Dec-21 17:22 UTC. Time now 2014-Dec-21 18:01 UTC.
Position N 51°46' E 006°20'.

Length 110 m; draft 1.4 m.

Type: Tanker. MMSI: 244650752.

Date/timePositionNaut miles runAvg speedWind from/ knotsBaromVisibWave heightAir tempDewpointWater temp
2014-Dec-21 17:22N 51°46' E 006°20'4 5.4
2014-Dec-21 16:33N 51°49' E 006°16'7 5.5
2014-Dec-21 15:17N 51°51' E 006°05'9 4.8
2014-Dec-21 13:25N 51°52' E 005°50'5 6.3
2014-Dec-21 12:33N 51°54' E 005°42'7 6.3
2014-Dec-21 11:32N 51°54' E 005°32'6 5.8
2014-Dec-21 10:33N 51°50' E 005°24'5 4.8
2014-Dec-21 09:33N 51°49' E 005°17'6 6.3
2014-Dec-21 08:33N 51°49' E 005°06'7 7.1
2014-Dec-21 07:33N 51°50' E 004°55'8 7.7
2014-Dec-21 06:33N 51°46' E 004°44'10 8.7
2014-Dec-21 05:21N 51°42' E 004°29'3 3.8
2014-Dec-21 04:31N 51°41' E 004°24'8 8.1
2014-Dec-21 03:33N 51°40' E 004°11'1 1.5
2014-Dec-21 02:33N 51°40' E 004°09'7 7.2
2014-Dec-21 01:33N 51°36' E 003°59'8 7.6
2014-Dec-21 00:33N 51°29' E 004°00'4 3.7
2014-Dec-20 23:33N 51°26' E 003°56'8 8.2
2014-Dec-20 22:33N 51°25' E 003°43'2 1.8
2014-Dec-20 21:33N 51°27' E 003°43'0 0.2
2014-Dec-20 20:33N 51°27' E 003°43'0 0.1
2014-Dec-20 19:33N 51°27' E 003°43'0 0.0
2014-Dec-20 18:33N 51°27' E 003°43'0 0.0
2014-Dec-20 17:33N 51°27' E 003°43'0 0.0
2014-Dec-20 16:33N 51°27' E 003°43'0 0.0
2014-Dec-20 15:33N 51°27' E 003°43'0 0.0
2014-Dec-20 14:33N 51°27' E 003°43'0 0.0
2014-Dec-20 13:33N 51°27' E 003°43'1 1.4
2014-Dec-20 12:33N 51°28' E 003°42'1 0.8
2014-Dec-20 11:33N 51°28' E 003°43'0 0.0
2014-Dec-20 10:33N 51°28' E 003°43'0 0.0
2014-Dec-20 09:33N 51°28' E 003°43'0 0.0
2014-Dec-20 08:33N 51°28' E 003°43'0 0.0
2014-Dec-20 07:33N 51°28' E 003°43'0 0.0
2014-Dec-20 06:33N 51°28' E 003°43'0 0.0
2014-Dec-20 05:33N 51°28' E 003°43'0 0.0
2014-Dec-20 04:33N 51°28' E 003°43'0 0.0
2014-Dec-20 03:33N 51°28' E 003°43'0 0.0
2014-Dec-20 02:33N 51°28' E 003°43'0 0.0
2014-Dec-20 01:33N 51°28' E 003°43'0 0.0
2014-Dec-20 00:33N 51°28' E 003°43'0 0.0
2014-Dec-19 23:33N 51°28' E 003°43'0 0.0
2014-Dec-19 22:33N 51°28' E 003°43'0 0.0
2014-Dec-19 21:33N 51°28' E 003°43'0 0.0
2014-Dec-19 20:33N 51°28' E 003°43'0 0.0
2014-Dec-19 19:33N 51°28' E 003°43'0 0.0
2014-Dec-19 18:33N 51°28' E 003°43'0 0.0
2014-Dec-19 17:33N 51°28' E 003°43'0 0.0
2014-Dec-19 16:33N 51°28' E 003°43'0 0.0
2014-Dec-19 15:33N 51°28' E 003°43'0 0.0
2014-Dec-19 14:33N 51°28' E 003°43'0 0.0
2014-Dec-19 13:33N 51°28' E 003°43'0 0.0
2014-Dec-19 12:33N 51°28' E 003°43'0 0.0
2014-Dec-19 11:33N 51°28' E 003°43'0 0.0
2014-Dec-19 10:33N 51°28' E 003°43'0 0.0
2014-Dec-19 09:33N 51°28' E 003°43'0 0.0
2014-Dec-19 08:33N 51°28' E 003°43'0 0.0
2014-Dec-19 07:33N 51°28' E 003°43'0 0.0
2014-Dec-19 06:33N 51°28' E 003°43'0 0.0
2014-Dec-19 05:33N 51°28' E 003°43'0 0.0
2014-Dec-19 04:33N 51°28' E 003°43'0 0.0
2014-Dec-19 03:33N 51°28' E 003°43'0 0.0
2014-Dec-19 02:33N 51°28' E 003°43'0 0.0
2014-Dec-19 01:33N 51°28' E 003°43'0 0.0
2014-Dec-19 00:33N 51°28' E 003°43'0 0.0
2014-Dec-18 23:33N 51°28' E 003°43'0 0.4
2014-Dec-18 22:33N 51°28' E 003°42'5 5.3
2014-Dec-18 21:33N 51°24' E 003°47'6 6.1
2014-Dec-18 20:33N 51°26' E 003°56'3 3.3
2014-Dec-18 19:33N 51°27' E 004°01'7 7.0
2014-Dec-18 18:33N 51°34' E 003°58'9 8.7
2014-Dec-18 17:32N 51°40' E 004°09'3 2.6
2014-Dec-18 16:33N 51°39' E 004°13'8 5.6
2014-Dec-18 15:11N 51°41' E 004°25'2 3.7
2014-Dec-18 14:32N 51°42' E 004°29'10 9.9
2014-Dec-18 13:33N 51°45' E 004°43'9 9.0
2014-Dec-18 12:33N 51°50' E 004°55'1010.2
2014-Dec-18 11:33N 51°49' E 005°12'9 9.1
2014-Dec-18 10:33N 51°52' E 005°25'1110.6
2014-Dec-18 09:32N 51°53' E 005°43'11 9.1
2014-Dec-18 08:22N 51°53' E 006°00'1011.1
2014-Dec-18 07:27N 51°50' E 006°15'  
2014-Dec-15 20:13N 51°46' E 006°20'4 5.0
2014-Dec-15 19:30N 51°49' E 006°16'11 4.7
2014-Dec-15 17:11N 51°53' E 005°60'6 3.8
2014-Dec-15 15:30N 51°52' E 005°49'5 5.2
2014-Dec-15 14:30N 51°54' E 005°41'5 5.2
2014-Dec-15 13:33N 51°54' E 005°33'4 3.6
2014-Dec-15 12:29N 51°54' E 005°27'5 5.6
2014-Dec-15 11:33N 51°57' E 005°21'3 2.6
2014-Dec-15 10:33N 51°59' E 005°17'7 6.6
2014-Dec-15 09:33N 52°02' E 005°07'4 3.7
2014-Dec-15 08:33N 52°05' E 005°05'6 5.8
2014-Dec-15 07:33N 52°10' E 004°60'6 6.5
2014-Dec-15 06:33N 52°16' E 005°01'6 6.1
2014-Dec-15 05:33N 52°22' E 004°57'5 5.4
2014-Dec-15 04:33N 52°25' E 004°50'2 2.2
2014-Dec-15 03:28N 52°24' E 004°46'0 0.0
2014-Dec-15 02:33N 52°24' E 004°46'0 0.0
2014-Dec-15 01:34N 52°24' E 004°46'0 0.0
2014-Dec-15 00:34N 52°24' E 004°46'0 0.0
2014-Dec-14 23:33N 52°24' E 004°46'0 0.0
2014-Dec-14 22:33N 52°24' E 004°46'0 0.0
2014-Dec-14 21:33N 52°24' E 004°46'0 0.0
2014-Dec-14 20:34N 52°24' E 004°46'0 0.0
2014-Dec-14 19:34N 52°24' E 004°46'0 0.0
2014-Dec-14 18:33N 52°24' E 004°46'2 1.7
2014-Dec-14 17:33N 52°25' E 004°48'0 0.1
2014-Dec-14 16:34N 52°25' E 004°48'0 0.0
2014-Dec-14 15:33N 52°25' E 004°48'0 0.0
2014-Dec-14 14:33N 52°25' E 004°48'0 0.0
2014-Dec-14 13:33N 52°25' E 004°48'0 0.0
2014-Dec-14 12:33N 52°25' E 004°48'0 0.0
2014-Dec-14 11:33N 52°25' E 004°48'0 0.0
2014-Dec-14 10:33N 52°25' E 004°48'0 0.0
2014-Dec-14 09:33N 52°25' E 004°48'0 0.0
2014-Dec-14 08:33N 52°25' E 004°48'0 0.0
2014-Dec-14 07:33N 52°25' E 004°48'0 0.0
2014-Dec-14 06:33N 52°25' E 004°48'0 0.0
2014-Dec-14 05:33N 52°25' E 004°48'0 0.0
2014-Dec-14 04:33N 52°25' E 004°48'0 0.0
2014-Dec-14 03:33N 52°25' E 004°48'0 0.0
2014-Dec-14 02:33N 52°25' E 004°48'0 0.0
2014-Dec-14 01:28N 52°25' E 004°48'0 0.0
2014-Dec-14 00:33N 52°25' E 004°48'0 0.0
2014-Dec-13 23:33N 52°25' E 004°48'0 0.0
2014-Dec-13 22:33N 52°25' E 004°48'0 0.0
2014-Dec-13 21:33N 52°25' E 004°48'0 0.0
2014-Dec-13 20:33N 52°25' E 004°48'0 0.0
2014-Dec-13 19:33N 52°25' E 004°48'0 0.0
2014-Dec-13 18:33N 52°25' E 004°48'0 0.0
2014-Dec-13 17:33N 52°25' E 004°48'0 0.0
2014-Dec-13 16:33N 52°25' E 004°48'0 0.0
2014-Dec-13 15:33N 52°25' E 004°48'0 0.0
2014-Dec-13 14:33N 52°25' E 004°48'3 2.7
2014-Dec-13 13:34N 52°25' E 004°52'7 7.4
2014-Dec-13 12:33N 52°19' E 005°01'8 8.0
2014-Dec-13 11:30N 52°11' E 004°60'7 7.4
2014-Dec-13 10:33N 52°05' E 005°05'8 7.5
2014-Dec-13 09:33N 51°60' E 005°14'5 4.7
2014-Dec-13 08:33N 51°58' E 005°21'6 5.5
2014-Dec-13 07:33N 51°54' E 005°27'7 7.2
2014-Dec-13 06:33N 51°54' E 005°39'10 8.1
2014-Dec-13 05:18N 51°52' E 005°55'6 7.2
2014-Dec-13 04:31N 51°52' E 006°04'10 9.1
2014-Dec-13 03:28N 51°48' E 006°19'32 6.5
2014-Dec-12 22:33N 51°20' E 006°43'6 6.3
2014-Dec-12 21:33N 51°14' E 006°44'6 5.6
2014-Dec-12 20:32N 51°10' E 006°51'16 7.7
2014-Dec-12 18:29N 50°55' E 006°58'110 6.5
2014-Dec-12 01:33N 49°21' E 008°30'7 6.6
2014-Dec-12 00:33N 49°15' E 008°26'9 8.6
2014-Dec-11 23:33N 49°07' E 008°22'7 6.6
2014-Dec-11 22:33N 49°01' E 008°19'0 0.1
2014-Dec-11 21:33N 49°01' E 008°19'0 0.0
2014-Dec-11 20:33N 49°01' E 008°19'0 0.0
2014-Dec-11 19:33N 49°01' E 008°19'0 0.0
2014-Dec-11 18:33N 49°01' E 008°19'0 0.0
2014-Dec-11 17:33N 49°01' E 008°19'  
Track history (hours):
 
Tides and Currents Weather Stations Pressure Air Temp Water Temp Dewpoint Dewpoint Depression Visibility Wind Speed Wind Dir Waves Ship Positions

Astra

Last reported at 2014-Dec-21 17:22 UTC. Time now 2014-Dec-21 18:01 UTC.
Position N 51°46' E 006°20'.

Length 110 m; draft 1.4 m.

Type: Tanker. MMSI: 244650752.

Date/timePositionNaut miles runAvg speedWind from/ knotsBaromVisibWave heightAir tempDewpointWater temp
2014-Dec-21 17:22N 51°46' E 006°20'4 5.4
2014-Dec-21 16:33N 51°49' E 006°16'7 5.5
2014-Dec-21 15:17N 51°51' E 006°05'9 4.8
2014-Dec-21 13:25N 51°52' E 005°50'5 6.3
2014-Dec-21 12:33N 51°54' E 005°42'7 6.3
2014-Dec-21 11:32N 51°54' E 005°32'6 5.8
2014-Dec-21 10:33N 51°50' E 005°24'5 4.8
2014-Dec-21 09:33N 51°49' E 005°17'6 6.3
2014-Dec-21 08:33N 51°49' E 005°06'7 7.1
2014-Dec-21 07:33N 51°50' E 004°55'8 7.7
2014-Dec-21 06:33N 51°46' E 004°44'10 8.7
2014-Dec-21 05:21N 51°42' E 004°29'3 3.8
2014-Dec-21 04:31N 51°41' E 004°24'8 8.1
2014-Dec-21 03:33N 51°40' E 004°11'1 1.5
2014-Dec-21 02:33N 51°40' E 004°09'7 7.2
2014-Dec-21 01:33N 51°36' E 003°59'8 7.6
2014-Dec-21 00:33N 51°29' E 004°00'4 3.7
2014-Dec-20 23:33N 51°26' E 003°56'8 8.2
2014-Dec-20 22:33N 51°25' E 003°43'2 1.8
2014-Dec-20 21:33N 51°27' E 003°43'0 0.2
2014-Dec-20 20:33N 51°27' E 003°43'0 0.1
2014-Dec-20 19:33N 51°27' E 003°43'0 0.0
2014-Dec-20 18:33N 51°27' E 003°43'0 0.0
2014-Dec-20 17:33N 51°27' E 003°43'0 0.0
2014-Dec-20 16:33N 51°27' E 003°43'0 0.0
2014-Dec-20 15:33N 51°27' E 003°43'0 0.0
2014-Dec-20 14:33N 51°27' E 003°43'0 0.0
2014-Dec-20 13:33N 51°27' E 003°43'1 1.4
2014-Dec-20 12:33N 51°28' E 003°42'1 0.8
2014-Dec-20 11:33N 51°28' E 003°43'0 0.0
2014-Dec-20 10:33N 51°28' E 003°43'0 0.0
2014-Dec-20 09:33N 51°28' E 003°43'0 0.0
2014-Dec-20 08:33N 51°28' E 003°43'0 0.0
2014-Dec-20 07:33N 51°28' E 003°43'0 0.0
2014-Dec-20 06:33N 51°28' E 003°43'0 0.0
2014-Dec-20 05:33N 51°28' E 003°43'0 0.0
2014-Dec-20 04:33N 51°28' E 003°43'0 0.0
2014-Dec-20 03:33N 51°28' E 003°43'0 0.0
2014-Dec-20 02:33N 51°28' E 003°43'0 0.0
2014-Dec-20 01:33N 51°28' E 003°43'0 0.0
2014-Dec-20 00:33N 51°28' E 003°43'0 0.0
2014-Dec-19 23:33N 51°28' E 003°43'0 0.0
2014-Dec-19 22:33N 51°28' E 003°43'0 0.0
2014-Dec-19 21:33N 51°28' E 003°43'0 0.0
2014-Dec-19 20:33N 51°28' E 003°43'0 0.0
2014-Dec-19 19:33N 51°28' E 003°43'0 0.0
2014-Dec-19 18:33N 51°28' E 003°43'0 0.0
2014-Dec-19 17:33N 51°28' E 003°43'0 0.0
2014-Dec-19 16:33N 51°28' E 003°43'0 0.0
2014-Dec-19 15:33N 51°28' E 003°43'0 0.0
2014-Dec-19 14:33N 51°28' E 003°43'0 0.0
2014-Dec-19 13:33N 51°28' E 003°43'0 0.0
2014-Dec-19 12:33N 51°28' E 003°43'0 0.0
2014-Dec-19 11:33N 51°28' E 003°43'0 0.0
2014-Dec-19 10:33N 51°28' E 003°43'0 0.0
2014-Dec-19 09:33N 51°28' E 003°43'0 0.0
2014-Dec-19 08:33N 51°28' E 003°43'0 0.0
2014-Dec-19 07:33N 51°28' E 003°43'0 0.0
2014-Dec-19 06:33N 51°28' E 003°43'0 0.0
2014-Dec-19 05:33N 51°28' E 003°43'0 0.0
2014-Dec-19 04:33N 51°28' E 003°43'0 0.0
2014-Dec-19 03:33N 51°28' E 003°43'0 0.0
2014-Dec-19 02:33N 51°28' E 003°43'0 0.0
2014-Dec-19 01:33N 51°28' E 003°43'0 0.0
2014-Dec-19 00:33N 51°28' E 003°43'0 0.0
2014-Dec-18 23:33N 51°28' E 003°43'0 0.4
2014-Dec-18 22:33N 51°28' E 003°42'5 5.3
2014-Dec-18 21:33N 51°24' E 003°47'6 6.1
2014-Dec-18 20:33N 51°26' E 003°56'3 3.3
2014-Dec-18 19:33N 51°27' E 004°01'7 7.0
2014-Dec-18 18:33N 51°34' E 003°58'9 8.7
2014-Dec-18 17:32N 51°40' E 004°09'3 2.6
2014-Dec-18 16:33N 51°39' E 004°13'8 5.6
2014-Dec-18 15:11N 51°41' E 004°25'2 3.7
2014-Dec-18 14:32N 51°42' E 004°29'10 9.9
2014-Dec-18 13:33N 51°45' E 004°43'9 9.0
2014-Dec-18 12:33N 51°50' E 004°55'1010.2
2014-Dec-18 11:33N 51°49' E 005°12'9 9.1
2014-Dec-18 10:33N 51°52' E 005°25'1110.6
2014-Dec-18 09:32N 51°53' E 005°43'11 9.1
2014-Dec-18 08:22N 51°53' E 006°00'1011.1
2014-Dec-18 07:27N 51°50' E 006°15'  
2014-Dec-15 20:13N 51°46' E 006°20'4 5.0
2014-Dec-15 19:30N 51°49' E 006°16'11 4.7
2014-Dec-15 17:11N 51°53' E 005°60'6 3.8
2014-Dec-15 15:30N 51°52' E 005°49'5 5.2
2014-Dec-15 14:30N 51°54' E 005°41'5 5.2
2014-Dec-15 13:33N 51°54' E 005°33'4 3.6
2014-Dec-15 12:29N 51°54' E 005°27'5 5.6
2014-Dec-15 11:33N 51°57' E 005°21'3 2.6
2014-Dec-15 10:33N 51°59' E 005°17'7 6.6
2014-Dec-15 09:33N 52°02' E 005°07'4 3.7
2014-Dec-15 08:33N 52°05' E 005°05'6 5.8
2014-Dec-15 07:33N 52°10' E 004°60'6 6.5
2014-Dec-15 06:33N 52°16' E 005°01'6 6.1
2014-Dec-15 05:33N 52°22' E 004°57'5 5.4
2014-Dec-15 04:33N 52°25' E 004°50'2 2.2
2014-Dec-15 03:28N 52°24' E 004°46'0 0.0
2014-Dec-15 02:33N 52°24' E 004°46'0 0.0
2014-Dec-15 01:34N 52°24' E 004°46'0 0.0
2014-Dec-15 00:34N 52°24' E 004°46'0 0.0
2014-Dec-14 23:33N 52°24' E 004°46'0 0.0
2014-Dec-14 22:33N 52°24' E 004°46'0 0.0
2014-Dec-14 21:33N 52°24' E 004°46'0 0.0
2014-Dec-14 20:34N 52°24' E 004°46'0 0.0
2014-Dec-14 19:34N 52°24' E 004°46'0 0.0
2014-Dec-14 18:33N 52°24' E 004°46'2 1.7
2014-Dec-14 17:33N 52°25' E 004°48'0 0.1
2014-Dec-14 16:34N 52°25' E 004°48'0 0.0
2014-Dec-14 15:33N 52°25' E 004°48'0 0.0
2014-Dec-14 14:33N 52°25' E 004°48'0 0.0
2014-Dec-14 13:33N 52°25' E 004°48'0 0.0
2014-Dec-14 12:33N 52°25' E 004°48'0 0.0
2014-Dec-14 11:33N 52°25' E 004°48'0 0.0
2014-Dec-14 10:33N 52°25' E 004°48'0 0.0
2014-Dec-14 09:33N 52°25' E 004°48'0 0.0
2014-Dec-14 08:33N 52°25' E 004°48'0 0.0
2014-Dec-14 07:33N 52°25' E 004°48'0 0.0
2014-Dec-14 06:33N 52°25' E 004°48'0 0.0
2014-Dec-14 05:33N 52°25' E 004°48'0 0.0
2014-Dec-14 04:33N 52°25' E 004°48'0 0.0
2014-Dec-14 03:33N 52°25' E 004°48'0 0.0
2014-Dec-14 02:33N 52°25' E 004°48'0 0.0
2014-Dec-14 01:28N 52°25' E 004°48'0 0.0
2014-Dec-14 00:33N 52°25' E 004°48'0 0.0
2014-Dec-13 23:33N 52°25' E 004°48'0 0.0
2014-Dec-13 22:33N 52°25' E 004°48'0 0.0
2014-Dec-13 21:33N 52°25' E 004°48'0 0.0
2014-Dec-13 20:33N 52°25' E 004°48'0 0.0
2014-Dec-13 19:33N 52°25' E 004°48'0 0.0
2014-Dec-13 18:33N 52°25' E 004°48'0 0.0
2014-Dec-13 17:33N 52°25' E 004°48'0 0.0
2014-Dec-13 16:33N 52°25' E 004°48'0 0.0
2014-Dec-13 15:33N 52°25' E 004°48'0 0.0
2014-Dec-13 14:33N 52°25' E 004°48'3 2.7
2014-Dec-13 13:34N 52°25' E 004°52'7 7.4
2014-Dec-13 12:33N 52°19' E 005°01'8 8.0
2014-Dec-13 11:30N 52°11' E 004°60'7 7.4
2014-Dec-13 10:33N 52°05' E 005°05'8 7.5
2014-Dec-13 09:33N 51°60' E 005°14'5 4.7
2014-Dec-13 08:33N 51°58' E 005°21'6 5.5
2014-Dec-13 07:33N 51°54' E 005°27'7 7.2
2014-Dec-13 06:33N 51°54' E 005°39'10 8.1
2014-Dec-13 05:18N 51°52' E 005°55'6 7.2
2014-Dec-13 04:31N 51°52' E 006°04'10 9.1
2014-Dec-13 03:28N 51°48' E 006°19'32 6.5
2014-Dec-12 22:33N 51°20' E 006°43'6 6.3
2014-Dec-12 21:33N 51°14' E 006°44'6 5.6
2014-Dec-12 20:32N 51°10' E 006°51'16 7.7
2014-Dec-12 18:29N 50°55' E 006°58'110 6.5
2014-Dec-12 01:33N 49°21' E 008°30'7 6.6
2014-Dec-12 00:33N 49°15' E 008°26'9 8.6
2014-Dec-11 23:33N 49°07' E 008°22'7 6.6
2014-Dec-11 22:33N 49°01' E 008°19'0 0.1
2014-Dec-11 21:33N 49°01' E 008°19'0 0.0
2014-Dec-11 20:33N 49°01' E 008°19'0 0.0
2014-Dec-11 19:33N 49°01' E 008°19'0 0.0
2014-Dec-11 18:33N 49°01' E 008°19'0 0.0
2014-Dec-11 17:33N 49°01' E 008°19'  

Dump ship's entire track history